Data for 01/09/2013

Time Sea-Level Adjusted Pressure Absolute Pressure Temperature Relative Humidity Dew Point   
(mb) (inHg) (mb) (inHg) (C) (F) (%) (C) (F)
00:05 1018 30.06 847 25.01 3 37.4 54 -5.4 22.3
00:10 1018 30.06 847 25.01 3.1 37.6 55 -5.2 22.6
00:15 1018 30.06 847 25.01 3.2 37.7 54 -5.3 22.5
00:20 1018 30.06 847 25.01 3.1 37.5 55 -5.1 22.8
00:25 1018 30.06 847 25.01 3.2 37.8 54 -5.2 22.6
00:30 1018 30.06 847 25.01 3.5 38.3 52 -5.4 22.4
00:35 1018 30.06 847 25.01 3.8 38.9 52 -5.1 22.8
00:40 1018 30.06 847 25.01 3.8 38.8 53 -4.8 23.3
00:45 1017 30.03 847 25.01 3.4 38.2 54 -5 23
00:50 1017 30.03 847 25.01 3.4 38.1 54 -5 23
00:55 1017 30.03 846 24.98 3.7 38.6 53 -5 22.9
01:00 1017 30.03 846 24.98 4 39.2 51 -5.3 22.4
01:05 1017 30.03 846 24.98 4.5 40.1 48 -5.6 22
01:10 1017 30.03 846 24.98 5.3 41.5 47 -5.2 22.6
01:15 1017 30.03 846 24.98 5.1 41.3 47 -5.1 22.8
01:20 1017 30.03 846 24.98 5 41.1 48 -5 22.9
01:25 1017 30.03 846 24.98 5 41 47 -5.5 22.2
01:30 1017 30.03 846 24.98 5.1 41.1 48 -5 23
01:35 1017 30.03 846 24.98 4.9 40.8 50 -4.7 23.6
01:40 1017 30.03 846 24.98 4.5 40 50 -5 23
01:45 1017 30.03 846 24.98 4.5 40.1 50 -5.1 22.9
01:50 1017 30.03 846 24.98 4.4 39.9 50 -5.1 22.7
01:55 1017 30.03 846 24.98 4.5 40.1 49 -5.2 22.7
02:00 1017 30.03 846 24.98 4.7 40.5 49 -5.1 22.8
02:05 1017 30.03 846 24.98 4.9 40.8 47 -5.4 22.3
02:10 1017 30.03 846 24.98 5.5 42 44 -5.9 21.4
02:15 1017 30.03 846 24.98 6 42.9 43 -5.6 21.8
02:20 1017 30.03 846 24.98 6.1 43 41 -6 21.1
02:25 1017 30.03 846 24.98 6.2 43.2 42 -5.8 21.5
02:30 1017 30.03 846 24.98 6.2 43.1 42 -5.9 21.4
02:35 1017 30.03 846 24.98 6.1 42.9 42 -5.8 21.6
02:40 1017 30.03 846 24.98 5.9 42.6 42 -5.9 21.3
02:45 1017 30.03 846 24.98 5.9 42.6 42 -6 21.2
02:50 1017 30.03 847 25.01 5.9 42.7 42 -6.1 21
02:55 1017 30.03 847 25.01 6.1 43 40 -6.4 20.4
03:00 1017 30.03 846 24.98 6.3 43.3 40 -6.5 20.4
03:05 1017 30.03 847 25.01 6.2 43.1 43 -5.6 21.8
03:10 1017 30.03 847 25.01 5.8 42.5 42 -6.2 20.9
03:15 1017 30.03 847 25.01 5.9 42.7 41 -6.4 20.5
03:20 1017 30.03 846 24.98 6.2 43.1 39 -6.6 20.1
03:25 1017 30.03 847 25.01 6.4 43.6 38 -6.8 19.8
03:30 1017 30.03 847 25.01 6.6 43.8 39 -6.3 20.6
03:35 1018 30.06 847 25.01 6.3 43.4 39 -6.6 20.1
03:40 1018 30.06 847 25.01 6.2 43.1 41 -6.1 21
03:45 1018 30.06 847 25.01 6 42.8 40 -6.5 20.3
03:50 1018 30.06 847 25.01 6 42.7 38 -7.2 19
03:55 1018 30.06 847 25.01 6.2 43.2 38 -7 19.3
04:00 1018 30.06 847 25.01 6.2 43.1 38 -7.1 19.2
04:05 1018 30.06 847 25.01 5.9 42.7 40 -6.6 20.1
04:10 1018 30.06 847 25.01 5.4 41.7 42 -6.4 20.5
04:15 1018 30.06 847 25.01 5.3 41.5 42 -6.6 20
04:20 1018 30.06 847 25.01 5.2 41.3 43 -6.4 20.5
04:25 1018 30.06 847 25.01 5.3 41.5 41 -7 19.4
04:30 1018 30.06 847 25.01 5.5 41.9 40 -7 19.5
04:35 1018 30.06 847 25.01 5.5 41.9 41 -6.7 19.9
04:40 1018 30.06 847 25.01 5.3 41.6 41 -6.9 19.6
04:45 1018 30.06 847 25.01 5.3 41.6 41 -6.8 19.7
04:50 1018 30.06 847 25.01 5.2 41.4 42 -6.6 20.1
04:55 1018 30.06 847 25.01 5.2 41.4 41 -7 19.4
05:00 1018 30.06 847 25.01 5.4 41.7 40 -7.1 19.1
05:05 1018 30.06 847 25.01 5.3 41.6 41 -6.8 19.8
05:10 1018 30.06 847 25.01 5.2 41.3 42 -6.7 20
05:15 1017 30.03 847 25.01 5.1 41.1 41 -7 19.4
05:20 1017 30.03 847 25.01 5.2 41.3 42 -6.7 19.9
05:25 1017 30.03 847 25.01 5.1 41.2 42 -6.7 19.9
05:30 1017 30.03 847 25.01 4.9 40.9 42 -6.9 19.6
05:35 1017 30.03 846 24.98 4.9 40.8 42 -7.1 19.2
05:40 1017 30.03 847 25.01 4.9 40.9 42 -7.1 19.3
05:45 1017 30.03 847 25.01 4.8 40.7 42 -6.9 19.5
05:50 1017 30.03 847 25.01 4.7 40.4 44 -6.6 20
05:55 1017 30.03 847 25.01 4.5 40.1 45 -6.6 20.2
06:00 1017 30.03 846 24.98 4 39.2 46 -6.5 20.3
06:05 1017 30.03 846 24.98 3.3 37.9 49 -6.4 20.4
06:10 1017 30.03 846 24.98 2.8 37 49 -6.8 19.8
06:15 1017 30.03 846 24.98 2.9 37.2 48 -7 19.3
06:20 1017 30.03 846 24.98 3.6 38.4 45 -7.1 19.2
06:25 1017 30.03 846 24.98 4.4 39.8 43 -7.2 19
06:30 1017 30.03 846 24.98 4.9 40.7 40 -7.6 18.3
06:35 1017 30.03 846 24.98 5.2 41.4 42 -6.8 19.7
06:40 1017 30.03 846 24.98 5 40.9 41 -7.2 19.1
06:45 1017 30.03 846 24.98 5.3 41.5 40 -7.3 18.9
06:50 1017 30.03 846 24.98 5.4 41.7 39 -7.6 18.3
06:55 1017 30.03 846 24.98 5.6 42.1 38 -7.5 18.4
07:00 1017 30.03 846 24.98 5.8 42.4 38 -7.3 18.9
07:05 1017 30.03 846 24.98 5.5 42 40 -7 19.4
07:10 1017 30.03 846 24.98 4.9 40.8 41 -7.2 19.1
07:15 1017 30.03 846 24.98 5.6 42.1 35 -8.6 16.6
07:20 1017 30.03 846 24.98 6.3 43.4 38 -7 19.3
07:25 1017 30.03 846 24.98 5.8 42.4 39 -7.2 19
07:30 1017 30.03 846 24.98 5.4 41.7 36 -8.5 16.7
07:35 1017 30.03 846 24.98 5.9 42.6 39 -7 19.4
07:40 1017 30.03 846 24.98 5.4 41.7 37 -8 17.6
07:45 1017 30.03 846 24.98 5.9 42.6 37 -7.6 18.3
07:50 1017 30.03 846 24.98 5.9 42.7 36 -7.9 17.9
07:55 1017 30.03 846 24.98 6 42.9 35 -8.2 17.3
08:00 1017 30.03 846 24.98 6.1 43 36 -7.8 17.9
08:05 1017 30.03 846 24.98 5.6 42.2 38 -7.7 18.1
08:10 1017 30.03 846 24.98 5.5 41.8 36 -8.3 17
08:15 1017 30.03 846 24.98 5.7 42.3 37 -7.7 18.1
08:20 1017 30.03 846 24.98 5.5 41.8 39 -7.5 18.4
08:25 1017 30.03 846 24.98 5 41.1 41 -7.1 19.1
08:30 1017 30.03 846 24.98 4.8 40.7 41 -7.2 19
08:35 1017 30.03 846 24.98 4.8 40.7 43 -6.8 19.7
08:40 1017 30.03 846 24.98 5 41 41 -7.3 18.9
08:45 1017 30.03 846 24.98 5.1 41.1 43 -6.6 20.1
08:50 1017 30.03 846 24.98 5 41 42 -6.9 19.6
08:55 1017 30.03 846 24.98 5.2 41.3 43 -6.6 20.2
09:00 1017 30.03 846 24.98 5 41 44 -6.3 20.7
09:05 1017 30.03 846 24.98 4.8 40.6 43 -6.8 19.8
09:10 1017 30.03 846 24.98 5.2 41.3 43 -6.4 20.4
09:15 1017 30.03 846 24.98 5.1 41.2 40 -7.3 18.9
09:20 1017 30.03 846 24.98 5.6 42.2 40 -7.1 19.3
09:25 1017 30.03 846 24.98 5.8 42.4 40 -6.7 20
09:30 1017 30.03 846 24.98 5.5 41.9 42 -6.6 20.2
09:35 1017 30.03 846 24.98 5.4 41.6 41 -6.8 19.8
09:40 1017 30.03 846 24.98 5.4 41.7 42 -6.6 20.1
09:45 1017 30.03 846 24.98 5.3 41.6 42 -6.7 19.9
09:50 1017 30.03 846 24.98 5.3 41.6 43 -6.4 20.6
09:55 1017 30.03 846 24.98 5.2 41.4 44 -6.2 20.9
10:00 1017 30.03 846 24.98 5.1 41.1 44 -6.1 21
10:05 1017 30.03 846 24.98 4.9 40.8 44 -6.4 20.5
10:10 1017 30.03 846 24.98 5.3 41.5 40 -7.3 18.8
10:15 1016 30 846 24.98 5.8 42.5 41 -6.5 20.3
10:20 1016 30 846 24.98 5.7 42.3 41 -6.5 20.3
10:25 1016 30 845 24.95 5.8 42.4 41 -6.4 20.4
10:30 1016 30 845 24.95 5.7 42.3 42 -6.2 20.8
10:35 1016 30 845 24.95 5.7 42.2 40 -6.8 19.7
10:40 1016 30 845 24.95 5.9 42.6 41 -6.4 20.4
10:45 1016 30 845 24.95 6.5 43.6 35 -7.9 17.8
10:50 1016 30 845 24.95 6.8 44.3 37 -6.8 19.8
10:55 1016 30 845 24.95 6.8 44.2 38 -6.7 20
11:00 1016 30 845 24.95 6.8 44.3 39 -6.1 21
11:05 1016 30 845 24.95 6.6 43.9 41 -5.8 21.5
11:10 1016 30 845 24.95 6.3 43.3 42 -5.8 21.6
11:15 1016 30 845 24.95 6.2 43.1 42 -5.7 21.7
11:20 1016 30 845 24.95 6.2 43.1 43 -5.6 21.9
11:25 1016 30 845 24.95 6.3 43.4 42 -5.5 22
11:30 1016 30 845 24.95 6.5 43.8 41 -5.8 21.6
11:35 1016 30 845 24.95 6.8 44.2 39 -6.1 21
11:40 1016 30 845 24.95 7 44.7 38 -6.2 20.9
11:45 1016 30 845 24.95 7.3 45.1 37 -6.5 20.3
11:50 1016 30 845 24.95 7.7 45.8 37 -6.2 20.9
11:55 1015 29.97 845 24.95 7.7 45.9 37 -6.1 21.1
12:00 1015 29.97 845 24.95 7.9 46.2 37 -5.9 21.4
12:05 1015 29.97 844 24.92 7.8 46 39 -5.1 22.8
12:10 1015 29.97 844 24.92 6.9 44.5 40 -5.6 21.9
12:15 1015 29.97 844 24.92 6.6 43.9 41 -5.6 21.9
12:20 1015 29.97 844 24.92 6.9 44.5 42 -5 23
12:25 1015 29.97 844 24.92 7 44.7 42 -5.1 22.8
12:30 1015 29.97 844 24.92 7.2 44.9 39 -5.7 21.8
12:35 1015 29.97 844 24.92 7.2 44.9 41 -5.1 22.8
12:40 1015 29.97 844 24.92 6.4 43.6 43 -5.3 22.5
12:45 1014 29.94 844 24.92 6.1 43.1 43 -5.6 21.8
12:50 1014 29.94 843 24.89 6.1 43 42 -5.7 21.7
12:55 1014 29.94 843 24.89 6.7 44.1 39 -6.1 21
13:00 1014 29.94 843 24.89 6.7 44.1 39 -6.3 20.7
13:05 1014 29.94 843 24.89 7.4 45.3 38 -6.2 20.9
13:10 1014 29.94 843 24.89 8.2 46.8 31 -7.9 17.8
13:15 1014 29.94 843 24.89 9.6 49.2 30 -7.2 19
13:20 1014 29.94 843 24.89 9.9 49.9 26 -8.6 16.5
13:25 1014 29.94 843 24.89 10.4 50.8 27 -7.6 18.3
13:30 1013 29.91 843 24.89 10.3 50.6 26 -8.4 16.9
13:35 1013 29.91 843 24.89 10.6 51 27 -7.6 18.3
13:40 1013 29.91 842 24.86 10.7 51.2 27 -7.5 18.5
13:45 1013 29.91 842 24.86 10.7 51.3 26 -7.9 17.7
13:50 1013 29.91 842 24.86 10.7 51.3 27 -7.5 18.5
13:55 1013 29.91 842 24.86 11.5 52.7 25 -8 17.6
14:00 1013 29.91 842 24.86 11 51.7 25 -8.2 17.3
14:05 1013 29.91 842 24.86 10.2 50.4 27 -7.7 18.1
14:10 1013 29.91 842 24.86 10.2 50.3 27 -8 17.6
14:15 1013 29.91 842 24.86 10.4 50.8 28 -7.3 18.8
14:20 1012 29.88 842 24.86 10.1 50.2 31 -6.3 20.7
14:25 1012 29.88 842 24.86 9.4 48.9 32 -6.3 20.7
14:30 1012 29.88 842 24.86 9.1 48.3 33 -6.5 20.4
14:35 1012 29.88 842 24.86 9.3 48.8 33 -6 21.2
14:40 1012 29.88 841 24.83 9.2 48.6 32 -6.6 20.1
14:45 1012 29.88 841 24.83 9.6 49.2 32 -6.4 20.6
14:50 1012 29.88 841 24.83 10.3 50.6 31 -5.9 21.5
14:55 1012 29.88 841 24.83 10.3 50.6 33 -5.3 22.5
15:00 1012 29.88 841 24.83 9.4 48.9 34 -5.7 21.7
15:05 1012 29.88 841 24.83 9.1 48.4 34 -5.8 21.5
15:10 1012 29.88 841 24.83 8.9 48 35 -5.7 21.7
15:15 1012 29.88 841 24.83 8.7 47.6 35 -5.9 21.4
15:20 1012 29.88 841 24.83 8.8 47.8 34 -6.3 20.7
15:25 1012 29.88 841 24.83 8.8 47.8 35 -6 21.3
15:30 1012 29.88 841 24.83 9.4 48.9 34 -5.7 21.7
15:35 1012 29.88 841 24.83 9.1 48.3 34 -5.9 21.4
15:40 1012 29.88 841 24.83 8.9 48 34 -6.2 20.8
15:45 1012 29.88 841 24.83 8.9 48 35 -5.6 21.9
15:50 1012 29.88 841 24.83 8.9 48.1 35 -5.6 21.9
15:55 1012 29.88 841 24.83 8.9 48 35 -5.6 21.8
16:00 1012 29.88 841 24.83 8.7 47.6 36 -5.4 22.2
16:05 1012 29.88 841 24.83 8.5 47.2 36 -5.8 21.6
16:10 1012 29.88 841 24.83 8.5 47.3 37 -5.4 22.2
16:15 1012 29.88 841 24.83 8.3 47 37 -5.6 21.9
16:20 1012 29.88 841 24.83 8 46.5 37 -5.8 21.6
16:25 1012 29.88 841 24.83 7.8 46 36 -6.2 20.9
16:30 1012 29.88 841 24.83 7.9 46.2 32 -7.7 18.1
16:35 1012 29.88 841 24.83 8.4 47.1 31 -7.6 18.2
16:40 1012 29.88 841 24.83 8.7 47.7 31 -7.7 18.2
16:45 1012 29.88 841 24.83 8.8 47.9 31 -7.6 18.4
16:50 1012 29.88 841 24.83 8.5 47.4 32 -7.2 19
16:55 1012 29.88 841 24.83 8.2 46.7 33 -7.2 19
17:00 1012 29.88 841 24.83 8.1 46.5 32 -7.5 18.4
17:05 1012 29.88 841 24.83 8.2 46.8 33 -7.1 19.2
17:10 1012 29.88 841 24.83 8.2 46.8 33 -7.2 19
17:15 1012 29.88 841 24.83 8 46.5 34 -6.7 19.9
17:20 1012 29.88 841 24.83 7.8 46 34 -7.1 19.2
17:25 1012 29.88 841 24.83 7.8 46 34 -7.1 19.3
17:30 1012 29.88 841 24.83 7.7 45.9 36 -6.6 20.1
17:35 1011 29.85 841 24.83 7.9 46.2 33 -7.6 18.4
17:40 1011 29.85 841 24.83 7.9 46.2 33 -7.3 18.8
17:45 1011 29.85 840 24.81 7.7 45.8 33 -7.5 18.5
17:50 1011 29.85 840 24.81 7.7 45.9 33 -7.7 18.2
17:55 1011 29.85 840 24.81 7.8 46 33 -7.6 18.2
18:00 1011 29.85 840 24.81 7.8 46 32 -7.8 18
18:05 1011 29.85 840 24.81 7.9 46.2 33 -7.5 18.6
18:10 1011 29.85 840 24.81 7.8 46.1 32 -7.9 17.7
18:15 1011 29.85 840 24.81 7.8 46 32 -7.7 18.1
18:20 1011 29.85 840 24.81 7.8 46.1 33 -7.3 18.8
18:25 1011 29.85 840 24.81 7.5 45.5 38 -5.9 21.5
18:30 1011 29.85 840 24.81 6.5 43.7 42 -5.6 21.9
18:35 1010 29.83 840 24.81 6 42.9 41 -6.2 20.8
18:40 1011 29.85 840 24.81 6.1 43 42 -5.9 21.3
18:45 1010 29.83 840 24.81 5.8 42.4 43 -5.8 21.5
18:50 1010 29.83 840 24.81 5.5 42 45 -5.5 22.1
18:55 1010 29.83 840 24.81 5.3 41.6 45 -5.5 22
19:00 1010 29.83 840 24.81 5.1 41.3 46 -5.5 22
19:05 1010 29.83 839 24.78 5.1 41.3 44 -6.2 20.8
19:10 1010 29.83 839 24.78 5.3 41.5 45 -5.7 21.7
19:15 1010 29.83 839 24.78 5.3 41.5 44 -6.1 21.1
19:20 1010 29.83 839 24.78 5.2 41.3 45 -5.8 21.6
19:25 1010 29.83 839 24.78 5.1 41.3 43 -6.3 20.7
19:30 1010 29.83 839 24.78 5.4 41.7 42 -6.5 20.4
19:35 1010 29.83 839 24.78 5.6 42.1 42 -6.3 20.7
19:40 1010 29.83 839 24.78 5.5 41.9 42 -6.3 20.7
19:45 1010 29.83 839 24.78 5.3 41.6 45 -5.8 21.6
19:50 1010 29.83 839 24.78 5.2 41.4 42 -6.6 20.2
19:55 1010 29.83 839 24.78 5.3 41.6 44 -6.1 21
20:00 1010 29.83 839 24.78 5.3 41.6 44 -5.9 21.3
20:05 1010 29.83 839 24.78 5.1 41.2 44 -6.1 20.9
20:10 1010 29.83 839 24.78 5.1 41.1 43 -6.4 20.4
20:15 1010 29.83 839 24.78 5.2 41.3 43 -6.4 20.5
20:20 1010 29.83 839 24.78 5.1 41.2 44 -6.3 20.7
20:25 1010 29.83 839 24.78 5.1 41.1 44 -6.2 20.9
20:30 1010 29.83 839 24.78 5.1 41.2 43 -6.4 20.4
20:35 1009 29.8 839 24.78 5.1 41.3 43 -6.4 20.5
20:40 1009 29.8 839 24.78 5.2 41.4 42 -6.6 20.1
20:45 1009 29.8 839 24.78 5.5 41.9 39 -7.4 18.7
20:50 1009 29.8 838 24.75 5.7 42.3 40 -6.9 19.6
20:55 1009 29.8 838 24.75 6 42.7 38 -7.1 19.2
21:00 1009 29.8 838 24.75 6.3 43.3 38 -7.1 19.1
21:05 1009 29.8 838 24.75 6.5 43.6 37 -7.1 19.2
21:10 1009 29.8 838 24.75 6.5 43.7 37 -7.2 19.1
21:15 1009 29.8 838 24.75 5.9 42.7 41 -6.4 20.6
21:20 1009 29.8 838 24.75 5.4 41.7 43 -6.3 20.7
21:25 1009 29.8 838 24.75 5.3 41.6 41 -6.8 19.7
21:30 1009 29.8 838 24.75 5.5 41.9 43 -6.2 20.8
21:35 1009 29.8 838 24.75 5.4 41.6 42 -6.5 20.4
21:40 1009 29.8 838 24.75 5.1 41.1 44 -6.2 20.8
21:45 1009 29.8 838 24.75 4.9 40.8 43 -6.5 20.3
21:50 1009 29.8 838 24.75 4.8 40.7 45 -6.1 20.9
21:55 1009 29.8 838 24.75 4.6 40.3 44 -6.6 20.1
22:00 1009 29.8 838 24.75 4.6 40.3 46 -6.1 21
22:05 1009 29.8 838 24.75 4.4 39.9 46 -6.2 20.9
22:10 1009 29.8 838 24.75 4.3 39.8 46 -6.4 20.5
22:15 1008 29.77 838 24.75 4.4 39.9 46 -6.2 20.8
22:20 1008 29.77 838 24.75 4.3 39.8 45 -6.5 20.3
22:25 1008 29.77 838 24.75 4.3 39.8 45 -6.6 20.1
22:30 1008 29.77 838 24.75 4.4 39.9 46 -6.1 21
22:35 1008 29.77 837 24.72 4.2 39.6 46 -6.4 20.5
22:40 1008 29.77 837 24.72 4.3 39.8 46 -6.4 20.5
22:45 1008 29.77 837 24.72 4.5 40.1 44 -6.6 20.1
22:50 1008 29.77 837 24.72 4.6 40.3 44 -6.7 20
22:55 1008 29.77 837 24.72 4.6 40.3 45 -6.5 20.4
23:00 1008 29.77 837 24.72 4.6 40.3 42 -7.2 19.1
23:05 1008 29.77 837 24.72 4.9 40.9 41 -7.2 19
23:10 1008 29.77 837 24.72 5 41.1 42 -6.9 19.5
23:15 1008 29.77 837 24.72 4.8 40.6 44 -6.3 20.6
23:20 1008 29.77 837 24.72 4.6 40.2 41 -7.6 18.3
23:25 1008 29.77 837 24.72 5.3 41.5 38 -7.8 18
23:30 1008 29.77 837 24.72 5.5 41.8 39 -7.4 18.7
23:35 1008 29.77 837 24.72 5.1 41.3 44 -6.3 20.7
23:40 1008 29.77 837 24.72 4.5 40 44 -6.8 19.7
23:45 1008 29.77 837 24.72 4.2 39.5 46 -6.4 20.4
23:50 1007 29.74 837 24.72 3.9 38.9 46 -6.7 19.9
23:55 1007 29.74 837 24.72 3.9 39.1 44 -7.1 19.2
24:00 1007 29.74 837 24.72 4 39.3 45 -6.8 19.7